sensor_id;sensor_type;location;lat;lon;timestamp;P1;durP1;ratioP1;P2;durP2;ratioP2
69837;SDS011;57135;51.992;4.476;2024-01-15T00:00:16;4.59;;;2.71;;
69837;SDS011;57135;51.992;4.476;2024-01-15T00:02:42;4.82;;;2.84;;
69837;SDS011;57135;51.992;4.476;2024-01-15T00:05:07;5.50;;;3.20;;
69837;SDS011;57135;51.992;4.476;2024-01-15T00:07:33;5.17;;;3.01;;
69837;SDS011;57135;51.992;4.476;2024-01-15T00:09:58;5.39;;;3.14;;
69837;SDS011;57135;51.992;4.476;2024-01-15T00:12:23;5.36;;;3.14;;
69837;SDS011;57135;51.992;4.476;2024-01-15T00:14:49;5.62;;;3.30;;
69837;SDS011;57135;51.992;4.476;2024-01-15T00:17:14;6.10;;;3.62;;
69837;SDS011;57135;51.992;4.476;2024-01-15T00:19:40;4.83;;;2.91;;
69837;SDS011;57135;51.992;4.476;2024-01-15T00:22:05;4.76;;;2.85;;
69837;SDS011;57135;51.992;4.476;2024-01-15T00:24:31;4.65;;;2.78;;
69837;SDS011;57135;51.992;4.476;2024-01-15T00:26:56;5.31;;;3.18;;
69837;SDS011;57135;51.992;4.476;2024-01-15T00:29:22;5.54;;;3.32;;
69837;SDS011;57135;51.992;4.476;2024-01-15T00:31:47;4.91;;;2.92;;
69837;SDS011;57135;51.992;4.476;2024-01-15T00:34:12;4.71;;;2.78;;
69837;SDS011;57135;51.992;4.476;2024-01-15T00:36:38;5.47;;;3.23;;
69837;SDS011;57135;51.992;4.476;2024-01-15T00:39:05;4.90;;;2.90;;
69837;SDS011;57135;51.992;4.476;2024-01-15T00:41:30;5.54;;;3.29;;
69837;SDS011;57135;51.992;4.476;2024-01-15T00:43:56;5.05;;;3.00;;
69837;SDS011;57135;51.992;4.476;2024-01-15T00:46:25;5.34;;;3.17;;
69837;SDS011;57135;51.992;4.476;2024-01-15T00:48:50;5.17;;;3.06;;
69837;SDS011;57135;51.992;4.476;2024-01-15T00:51:16;4.82;;;2.87;;
69837;SDS011;57135;51.992;4.476;2024-01-15T00:53:41;4.38;;;2.63;;
69837;SDS011;57135;51.992;4.476;2024-01-15T00:56:07;4.26;;;2.54;;
69837;SDS011;57135;51.992;4.476;2024-01-15T00:58:32;5.82;;;3.44;;
69837;SDS011;57135;51.992;4.476;2024-01-15T01:00:57;4.53;;;2.69;;
69837;SDS011;57135;51.992;4.476;2024-01-15T01:03:23;5.39;;;3.23;;
69837;SDS011;57135;51.992;4.476;2024-01-15T01:05:48;4.55;;;2.72;;
69837;SDS011;57135;51.992;4.476;2024-01-15T01:08:15;4.09;;;2.45;;
69837;SDS011;57135;51.992;4.476;2024-01-15T01:10:40;4.62;;;2.75;;
69837;SDS011;57135;51.992;4.476;2024-01-15T01:13:08;4.63;;;2.72;;
69837;SDS011;57135;51.992;4.476;2024-01-15T01:15:33;4.44;;;2.63;;
69837;SDS011;57135;51.992;4.476;2024-01-15T01:17:59;5.11;;;3.03;;
69837;SDS011;57135;51.992;4.476;2024-01-15T01:20:24;5.09;;;3.01;;
69837;SDS011;57135;51.992;4.476;2024-01-15T01:22:50;4.62;;;2.70;;
69837;SDS011;57135;51.992;4.476;2024-01-15T01:25:15;5.10;;;2.98;;
69837;SDS011;57135;51.992;4.476;2024-01-15T01:27:40;4.16;;;2.45;;
69837;SDS011;57135;51.992;4.476;2024-01-15T01:30:06;4.31;;;2.53;;
69837;SDS011;57135;51.992;4.476;2024-01-15T01:32:32;5.27;;;3.09;;
69837;SDS011;57135;51.992;4.476;2024-01-15T01:34:57;5.12;;;3.02;;
69837;SDS011;57135;51.992;4.476;2024-01-15T01:37:23;3.91;;;2.32;;
69837;SDS011;57135;51.992;4.476;2024-01-15T01:39:48;4.41;;;2.59;;
69837;SDS011;57135;51.992;4.476;2024-01-15T01:42:13;5.25;;;3.09;;
69837;SDS011;57135;51.992;4.476;2024-01-15T01:44:39;3.27;;;1.93;;
69837;SDS011;57135;51.992;4.476;2024-01-15T01:47:04;5.16;;;3.05;;
69837;SDS011;57135;51.992;4.476;2024-01-15T01:49:30;5.14;;;3.03;;
69837;SDS011;57135;51.992;4.476;2024-01-15T01:52:00;4.79;;;2.84;;
69837;SDS011;57135;51.992;4.476;2024-01-15T01:54:29;2.72;;;1.62;;
69837;SDS011;57135;51.992;4.476;2024-01-15T01:56:56;4.28;;;2.54;;
69837;SDS011;57135;51.992;4.476;2024-01-15T01:59:23;4.74;;;2.79;;
69837;SDS011;57135;51.992;4.476;2024-01-15T02:01:51;4.76;;;2.82;;
69837;SDS011;57135;51.992;4.476;2024-01-15T02:04:19;4.53;;;2.69;;
69837;SDS011;57135;51.992;4.476;2024-01-15T02:06:44;3.86;;;2.29;;
69837;SDS011;57135;51.992;4.476;2024-01-15T02:09:10;3.62;;;2.15;;
69837;SDS011;57135;51.992;4.476;2024-01-15T02:11:36;3.88;;;2.31;;
69837;SDS011;57135;51.992;4.476;2024-01-15T02:14:02;4.01;;;2.37;;
69837;SDS011;57135;51.992;4.476;2024-01-15T02:16:28;3.49;;;2.06;;
69837;SDS011;57135;51.992;4.476;2024-01-15T02:18:53;3.52;;;2.07;;
69837;SDS011;57135;51.992;4.476;2024-01-15T02:21:19;3.64;;;2.13;;
69837;SDS011;57135;51.992;4.476;2024-01-15T02:23:44;2.81;;;1.64;;
69837;SDS011;57135;51.992;4.476;2024-01-15T02:26:10;3.23;;;1.89;;
69837;SDS011;57135;51.992;4.476;2024-01-15T02:28:35;2.64;;;1.55;;
69837;SDS011;57135;51.992;4.476;2024-01-15T02:31:01;2.29;;;1.35;;
69837;SDS011;57135;51.992;4.476;2024-01-15T02:33:27;2.95;;;1.75;;
69837;SDS011;57135;51.992;4.476;2024-01-15T02:35:52;2.77;;;1.65;;
69837;SDS011;57135;51.992;4.476;2024-01-15T02:38:17;2.94;;;1.76;;
69837;SDS011;57135;51.992;4.476;2024-01-15T02:40:44;2.21;;;1.33;;
69837;SDS011;57135;51.992;4.476;2024-01-15T02:43:10;2.13;;;1.28;;
69837;SDS011;57135;51.992;4.476;2024-01-15T02:45:35;2.03;;;1.21;;
69837;SDS011;57135;51.992;4.476;2024-01-15T02:48:01;2.52;;;1.50;;
69837;SDS011;57135;51.992;4.476;2024-01-15T02:50:27;2.17;;;1.29;;
69837;SDS011;57135;51.992;4.476;2024-01-15T02:52:52;1.82;;;1.10;;
69837;SDS011;57135;51.992;4.476;2024-01-15T02:55:18;2.05;;;1.24;;
69837;SDS011;57135;51.992;4.476;2024-01-15T02:57:43;2.22;;;1.35;;
69837;SDS011;57135;51.992;4.476;2024-01-15T03:00:09;2.46;;;1.50;;
69837;SDS011;57135;51.992;4.476;2024-01-15T03:02:38;2.54;;;1.54;;
69837;SDS011;57135;51.992;4.476;2024-01-15T03:05:06;2.29;;;1.38;;
69837;SDS011;57135;51.992;4.476;2024-01-15T03:07:32;3.03;;;1.81;;
69837;SDS011;57135;51.992;4.476;2024-01-15T03:09:58;2.31;;;1.37;;
69837;SDS011;57135;51.992;4.476;2024-01-15T03:12:24;2.24;;;1.32;;
69837;SDS011;57135;51.992;4.476;2024-01-15T03:14:49;2.97;;;1.76;;
69837;SDS011;57135;51.992;4.476;2024-01-15T03:17:15;2.36;;;1.40;;
69837;SDS011;57135;51.992;4.476;2024-01-15T03:19:40;2.55;;;1.52;;
69837;SDS011;57135;51.992;4.476;2024-01-15T03:22:05;2.60;;;1.53;;
69837;SDS011;57135;51.992;4.476;2024-01-15T03:24:33;2.22;;;1.30;;
69837;SDS011;57135;51.992;4.476;2024-01-15T03:26:58;2.98;;;1.76;;
69837;SDS011;57135;51.992;4.476;2024-01-15T03:29:25;2.74;;;1.63;;
69837;SDS011;57135;51.992;4.476;2024-01-15T03:31:51;3.34;;;1.97;;
69837;SDS011;57135;51.992;4.476;2024-01-15T03:34:17;3.57;;;2.11;;
69837;SDS011;57135;51.992;4.476;2024-01-15T03:36:42;3.66;;;2.17;;
69837;SDS011;57135;51.992;4.476;2024-01-15T03:39:07;3.65;;;2.16;;
69837;SDS011;57135;51.992;4.476;2024-01-15T03:41:33;3.42;;;2.03;;
69837;SDS011;57135;51.992;4.476;2024-01-15T03:43:58;4.10;;;2.44;;
69837;SDS011;57135;51.992;4.476;2024-01-15T03:46:24;3.78;;;2.24;;
69837;SDS011;57135;51.992;4.476;2024-01-15T03:48:49;3.53;;;2.08;;
69837;SDS011;57135;51.992;4.476;2024-01-15T03:51:16;2.94;;;1.73;;
69837;SDS011;57135;51.992;4.476;2024-01-15T03:53:42;3.08;;;1.80;;
69837;SDS011;57135;51.992;4.476;2024-01-15T03:56:08;3.69;;;2.15;;
69837;SDS011;57135;51.992;4.476;2024-01-15T03:58:33;2.94;;;1.71;;
69837;SDS011;57135;51.992;4.476;2024-01-15T04:00:59;3.12;;;1.82;;
69837;SDS011;57135;51.992;4.476;2024-01-15T04:03:24;3.73;;;2.17;;
69837;SDS011;57135;51.992;4.476;2024-01-15T04:05:50;3.95;;;2.29;;
69837;SDS011;57135;51.992;4.476;2024-01-15T04:08:15;3.26;;;1.88;;
69837;SDS011;57135;51.992;4.476;2024-01-15T04:10:41;3.49;;;2.03;;
69837;SDS011;57135;51.992;4.476;2024-01-15T04:13:06;3.64;;;2.11;;
69837;SDS011;57135;51.992;4.476;2024-01-15T04:15:32;2.61;;;1.50;;
69837;SDS011;57135;51.992;4.476;2024-01-15T04:17:57;2.91;;;1.69;;
69837;SDS011;57135;51.992;4.476;2024-01-15T04:20:23;3.61;;;2.12;;
69837;SDS011;57135;51.992;4.476;2024-01-15T04:22:48;3.83;;;2.25;;
69837;SDS011;57135;51.992;4.476;2024-01-15T04:25:14;2.74;;;1.61;;
69837;SDS011;57135;51.992;4.476;2024-01-15T04:27:39;2.68;;;1.59;;
69837;SDS011;57135;51.992;4.476;2024-01-15T04:30:05;2.48;;;1.47;;
69837;SDS011;57135;51.992;4.476;2024-01-15T04:32:30;1.84;;;1.09;;
69837;SDS011;57135;51.992;4.476;2024-01-15T04:34:56;1.82;;;1.07;;
69837;SDS011;57135;51.992;4.476;2024-01-15T04:37:21;2.54;;;1.49;;
69837;SDS011;57135;51.992;4.476;2024-01-15T04:39:47;2.42;;;1.44;;
69837;SDS011;57135;51.992;4.476;2024-01-15T04:42:12;2.73;;;1.63;;
69837;SDS011;57135;51.992;4.476;2024-01-15T04:44:38;1.54;;;0.92;;
69837;SDS011;57135;51.992;4.476;2024-01-15T04:47:03;1.31;;;0.78;;
69837;SDS011;57135;51.992;4.476;2024-01-15T04:49:29;1.67;;;1.00;;
69837;SDS011;57135;51.992;4.476;2024-01-15T04:51:55;1.26;;;0.76;;
69837;SDS011;57135;51.992;4.476;2024-01-15T04:54:20;1.43;;;0.87;;
69837;SDS011;57135;51.992;4.476;2024-01-15T04:56:46;1.78;;;1.08;;
69837;SDS011;57135;51.992;4.476;2024-01-15T04:59:11;1.56;;;0.94;;
69837;SDS011;57135;51.992;4.476;2024-01-15T05:01:37;1.42;;;0.86;;
69837;SDS011;57135;51.992;4.476;2024-01-15T05:04:03;1.16;;;0.70;;
69837;SDS011;57135;51.992;4.476;2024-01-15T05:06:28;1.80;;;1.09;;
69837;SDS011;57135;51.992;4.476;2024-01-15T05:08:54;1.87;;;1.14;;
69837;SDS011;57135;51.992;4.476;2024-01-15T05:11:19;1.68;;;1.02;;
69837;SDS011;57135;51.992;4.476;2024-01-15T05:13:45;2.21;;;1.34;;
69837;SDS011;57135;51.992;4.476;2024-01-15T05:16:10;1.95;;;1.19;;
69837;SDS011;57135;51.992;4.476;2024-01-15T05:18:36;2.08;;;1.27;;
69837;SDS011;57135;51.992;4.476;2024-01-15T05:21:04;1.74;;;1.06;;
69837;SDS011;57135;51.992;4.476;2024-01-15T05:23:31;1.68;;;1.03;;
69837;SDS011;57135;51.992;4.476;2024-01-15T05:25:57;1.65;;;1.01;;
69837;SDS011;57135;51.992;4.476;2024-01-15T05:28:22;1.85;;;1.14;;
69837;SDS011;57135;51.992;4.476;2024-01-15T05:30:48;1.90;;;1.18;;
69837;SDS011;57135;51.992;4.476;2024-01-15T05:33:15;1.75;;;1.09;;
69837;SDS011;57135;51.992;4.476;2024-01-15T05:35:41;1.86;;;1.16;;
69837;SDS011;57135;51.992;4.476;2024-01-15T05:38:07;2.58;;;1.60;;
69837;SDS011;57135;51.992;4.476;2024-01-15T05:40:32;2.98;;;1.85;;
69837;SDS011;57135;51.992;4.476;2024-01-15T05:42:58;2.93;;;1.82;;
69837;SDS011;57135;51.992;4.476;2024-01-15T05:45:23;2.56;;;1.59;;
69837;SDS011;57135;51.992;4.476;2024-01-15T05:47:49;2.21;;;1.38;;
69837;SDS011;57135;51.992;4.476;2024-01-15T05:50:14;3.00;;;1.89;;
69837;SDS011;57135;51.992;4.476;2024-01-15T05:52:40;2.89;;;1.82;;
69837;SDS011;57135;51.992;4.476;2024-01-15T05:55:05;2.75;;;1.71;;
69837;SDS011;57135;51.992;4.476;2024-01-15T05:57:31;2.90;;;1.78;;
69837;SDS011;57135;51.992;4.476;2024-01-15T05:59:56;2.87;;;1.75;;
69837;SDS011;57135;51.992;4.476;2024-01-15T06:02:22;3.13;;;1.91;;
69837;SDS011;57135;51.992;4.476;2024-01-15T06:04:47;3.32;;;2.02;;
69837;SDS011;57135;51.992;4.476;2024-01-15T06:07:12;2.91;;;1.78;;
69837;SDS011;57135;51.992;4.476;2024-01-15T06:09:38;3.00;;;1.84;;
69837;SDS011;57135;51.992;4.476;2024-01-15T06:12:04;3.29;;;2.01;;
69837;SDS011;57135;51.992;4.476;2024-01-15T06:14:30;3.02;;;1.84;;
69837;SDS011;57135;51.992;4.476;2024-01-15T06:16:55;1.86;;;1.14;;
69837;SDS011;57135;51.992;4.476;2024-01-15T06:19:21;1.22;;;0.75;;
69837;SDS011;57135;51.992;4.476;2024-01-15T06:21:46;1.38;;;0.84;;
69837;SDS011;57135;51.992;4.476;2024-01-15T06:24:12;1.33;;;0.81;;
69837;SDS011;57135;51.992;4.476;2024-01-15T06:26:38;1.06;;;0.64;;
69837;SDS011;57135;51.992;4.476;2024-01-15T06:29:04;1.31;;;0.79;;
69837;SDS011;57135;51.992;4.476;2024-01-15T06:31:32;1.33;;;0.81;;
69837;SDS011;57135;51.992;4.476;2024-01-15T06:33:58;1.73;;;1.06;;
69837;SDS011;57135;51.992;4.476;2024-01-15T06:36:26;2.11;;;1.28;;
69837;SDS011;57135;51.992;4.476;2024-01-15T06:38:51;1.91;;;1.17;;
69837;SDS011;57135;51.992;4.476;2024-01-15T06:41:17;1.80;;;1.11;;
69837;SDS011;57135;51.992;4.476;2024-01-15T06:43:42;2.29;;;1.40;;
69837;SDS011;57135;51.992;4.476;2024-01-15T06:46:08;3.08;;;1.91;;
69837;SDS011;57135;51.992;4.476;2024-01-15T06:48:34;2.97;;;1.90;;
69837;SDS011;57135;51.992;4.476;2024-01-15T06:50:59;2.71;;;1.73;;
69837;SDS011;57135;51.992;4.476;2024-01-15T06:53:25;2.46;;;1.57;;
69837;SDS011;57135;51.992;4.476;2024-01-15T06:55:50;2.34;;;1.49;;
69837;SDS011;57135;51.992;4.476;2024-01-15T06:58:16;2.15;;;1.39;;
69837;SDS011;57135;51.992;4.476;2024-01-15T07:00:42;2.46;;;1.62;;
69837;SDS011;57135;51.992;4.476;2024-01-15T07:03:07;1.90;;;1.25;;
69837;SDS011;57135;51.992;4.476;2024-01-15T07:05:33;2.12;;;1.41;;
69837;SDS011;57135;51.992;4.476;2024-01-15T07:07:58;2.15;;;1.45;;
69837;SDS011;57135;51.992;4.476;2024-01-15T07:10:24;2.21;;;1.50;;
69837;SDS011;57135;51.992;4.476;2024-01-15T07:12:49;2.68;;;1.79;;
69837;SDS011;57135;51.992;4.476;2024-01-15T07:15:15;2.73;;;1.76;;
69837;SDS011;57135;51.992;4.476;2024-01-15T07:17:41;3.11;;;2.00;;
69837;SDS011;57135;51.992;4.476;2024-01-15T07:20:07;3.57;;;2.28;;
69837;SDS011;57135;51.992;4.476;2024-01-15T07:22:33;3.60;;;2.31;;
69837;SDS011;57135;51.992;4.476;2024-01-15T07:25:01;3.40;;;2.20;;
69837;SDS011;57135;51.992;4.476;2024-01-15T07:27:27;3.59;;;2.35;;
69837;SDS011;57135;51.992;4.476;2024-01-15T07:29:52;4.21;;;2.88;;
69837;SDS011;57135;51.992;4.476;2024-01-15T07:32:18;4.34;;;3.02;;
69837;SDS011;57135;51.992;4.476;2024-01-15T07:34:43;4.55;;;3.25;;
69837;SDS011;57135;51.992;4.476;2024-01-15T07:37:08;2.60;;;1.87;;
69837;SDS011;57135;51.992;4.476;2024-01-15T07:39:34;2.92;;;2.01;;
69837;SDS011;57135;51.992;4.476;2024-01-15T07:42:00;3.33;;;2.24;;
69837;SDS011;57135;51.992;4.476;2024-01-15T07:44:25;3.05;;;2.02;;
69837;SDS011;57135;51.992;4.476;2024-01-15T07:46:51;3.57;;;2.31;;
69837;SDS011;57135;51.992;4.476;2024-01-15T07:49:19;4.21;;;2.69;;
69837;SDS011;57135;51.992;4.476;2024-01-15T07:51:45;3.54;;;2.24;;
69837;SDS011;57135;51.992;4.476;2024-01-15T07:54:13;3.52;;;2.21;;
69837;SDS011;57135;51.992;4.476;2024-01-15T07:56:57;3.65;;;2.28;;
69837;SDS011;57135;51.992;4.476;2024-01-15T07:59:24;3.97;;;2.45;;
69837;SDS011;57135;51.992;4.476;2024-01-15T08:01:51;3.62;;;2.20;;
69837;SDS011;57135;51.992;4.476;2024-01-15T08:04:17;4.48;;;2.75;;
69837;SDS011;57135;51.992;4.476;2024-01-15T08:06:42;4.37;;;2.68;;
69837;SDS011;57135;51.992;4.476;2024-01-15T08:09:08;4.18;;;2.57;;
69837;SDS011;57135;51.992;4.476;2024-01-15T08:11:34;4.40;;;2.67;;
69837;SDS011;57135;51.992;4.476;2024-01-15T08:14:00;4.14;;;2.49;;
69837;SDS011;57135;51.992;4.476;2024-01-15T08:16:25;4.86;;;2.97;;
69837;SDS011;57135;51.992;4.476;2024-01-15T08:18:52;4.20;;;2.56;;
69837;SDS011;57135;51.992;4.476;2024-01-15T08:21:18;3.93;;;2.39;;
69837;SDS011;57135;51.992;4.476;2024-01-15T08:23:44;4.37;;;2.62;;
69837;SDS011;57135;51.992;4.476;2024-01-15T08:26:10;4.02;;;2.41;;
69837;SDS011;57135;51.992;4.476;2024-01-15T08:28:36;4.82;;;3.02;;
69837;SDS011;57135;51.992;4.476;2024-01-15T08:31:01;4.07;;;2.64;;
69837;SDS011;57135;51.992;4.476;2024-01-15T08:33:28;2.50;;;1.71;;
69837;SDS011;57135;51.992;4.476;2024-01-15T08:35:53;1.48;;;1.01;;
69837;SDS011;57135;51.992;4.476;2024-01-15T08:38:19;1.77;;;1.19;;
69837;SDS011;57135;51.992;4.476;2024-01-15T08:40:44;2.27;;;1.49;;
69837;SDS011;57135;51.992;4.476;2024-01-15T08:43:10;2.06;;;1.32;;
69837;SDS011;57135;51.992;4.476;2024-01-15T08:45:35;2.37;;;1.49;;
69837;SDS011;57135;51.992;4.476;2024-01-15T08:48:01;3.23;;;2.02;;
69837;SDS011;57135;51.992;4.476;2024-01-15T08:50:27;2.83;;;1.77;;
69837;SDS011;57135;51.992;4.476;2024-01-15T08:52:54;2.05;;;1.28;;
69837;SDS011;57135;51.992;4.476;2024-01-15T08:55:19;1.77;;;1.11;;
69837;SDS011;57135;51.992;4.476;2024-01-15T08:57:47;1.70;;;1.07;;
69837;SDS011;57135;51.992;4.476;2024-01-15T09:00:19;1.88;;;1.17;;
69837;SDS011;57135;51.992;4.476;2024-01-15T09:02:54;2.31;;;1.43;;
69837;SDS011;57135;51.992;4.476;2024-01-15T09:05:19;2.31;;;1.43;;
69837;SDS011;57135;51.992;4.476;2024-01-15T09:07:45;2.23;;;1.37;;
69837;SDS011;57135;51.992;4.476;2024-01-15T09:10:11;3.29;;;1.99;;
69837;SDS011;57135;51.992;4.476;2024-01-15T09:12:36;2.98;;;1.79;;
69837;SDS011;57135;51.992;4.476;2024-01-15T09:15:02;3.52;;;2.12;;
69837;SDS011;57135;51.992;4.476;2024-01-15T09:17:29;3.66;;;2.20;;
69837;SDS011;57135;51.992;4.476;2024-01-15T09:19:54;3.99;;;2.43;;
69837;SDS011;57135;51.992;4.476;2024-01-15T09:22:20;3.79;;;2.32;;
69837;SDS011;57135;51.992;4.476;2024-01-15T09:24:53;4.49;;;2.75;;
69837;SDS011;57135;51.992;4.476;2024-01-15T09:27:18;3.62;;;2.21;;
69837;SDS011;57135;51.992;4.476;2024-01-15T09:29:44;4.32;;;2.61;;
69837;SDS011;57135;51.992;4.476;2024-01-15T09:32:11;6.00;;;3.71;;
69837;SDS011;57135;51.992;4.476;2024-01-15T09:34:37;3.51;;;2.19;;
69837;SDS011;57135;51.992;4.476;2024-01-15T09:37:03;3.53;;;2.24;;
69837;SDS011;57135;51.992;4.476;2024-01-15T09:39:29;3.91;;;2.46;;
69837;SDS011;57135;51.992;4.476;2024-01-15T09:41:55;4.46;;;2.80;;
69837;SDS011;57135;51.992;4.476;2024-01-15T09:44:21;5.83;;;3.78;;
69837;SDS011;57135;51.992;4.476;2024-01-15T09:46:48;3.21;;;2.15;;
69837;SDS011;57135;51.992;4.476;2024-01-15T09:49:15;2.61;;;1.73;;
69837;SDS011;57135;51.992;4.476;2024-01-15T09:51:42;2.71;;;1.76;;
69837;SDS011;57135;51.992;4.476;2024-01-15T09:54:08;2.52;;;1.61;;
69837;SDS011;57135;51.992;4.476;2024-01-15T09:56:34;2.14;;;1.35;;
69837;SDS011;57135;51.992;4.476;2024-01-15T09:59:00;1.91;;;1.19;;
69837;SDS011;57135;51.992;4.476;2024-01-15T10:01:27;1.87;;;1.16;;
69837;SDS011;57135;51.992;4.476;2024-01-15T10:03:53;2.22;;;1.38;;
69837;SDS011;57135;51.992;4.476;2024-01-15T10:06:19;1.92;;;1.21;;
69837;SDS011;57135;51.992;4.476;2024-01-15T10:08:47;1.85;;;1.16;;
69837;SDS011;57135;51.992;4.476;2024-01-15T10:11:14;2.29;;;1.45;;
69837;SDS011;57135;51.992;4.476;2024-01-15T10:13:39;2.33;;;1.46;;
69837;SDS011;57135;51.992;4.476;2024-01-15T10:16:05;2.05;;;1.28;;
69837;SDS011;57135;51.992;4.476;2024-01-15T10:18:31;1.84;;;1.15;;
69837;SDS011;57135;51.992;4.476;2024-01-15T10:20:57;2.39;;;1.50;;
69837;SDS011;57135;51.992;4.476;2024-01-15T10:23:23;2.39;;;1.54;;
69837;SDS011;57135;51.992;4.476;2024-01-15T10:25:49;2.37;;;1.52;;
69837;SDS011;57135;51.992;4.476;2024-01-15T10:28:16;3.03;;;1.92;;
69837;SDS011;57135;51.992;4.476;2024-01-15T10:30:44;2.40;;;1.53;;
69837;SDS011;57135;51.992;4.476;2024-01-15T10:33:10;2.65;;;1.68;;
69837;SDS011;57135;51.992;4.476;2024-01-15T10:35:37;2.93;;;1.84;;
69837;SDS011;57135;51.992;4.476;2024-01-15T10:38:03;2.48;;;1.56;;
69837;SDS011;57135;51.992;4.476;2024-01-15T10:40:29;2.11;;;1.33;;
69837;SDS011;57135;51.992;4.476;2024-01-15T10:42:54;2.40;;;1.51;;
69837;SDS011;57135;51.992;4.476;2024-01-15T10:45:20;2.98;;;1.88;;
69837;SDS011;57135;51.992;4.476;2024-01-15T10:47:46;2.74;;;1.73;;
69837;SDS011;57135;51.992;4.476;2024-01-15T10:50:11;3.94;;;2.53;;
69837;SDS011;57135;51.992;4.476;2024-01-15T10:52:38;3.16;;;2.12;;
69837;SDS011;57135;51.992;4.476;2024-01-15T10:55:08;2.36;;;1.55;;
69837;SDS011;57135;51.992;4.476;2024-01-15T10:57:35;4.30;;;2.80;;
69837;SDS011;57135;51.992;4.476;2024-01-15T11:00:04;2.91;;;1.90;;
69837;SDS011;57135;51.992;4.476;2024-01-15T11:02:32;2.51;;;1.65;;
69837;SDS011;57135;51.992;4.476;2024-01-15T11:04:58;2.82;;;1.86;;
69837;SDS011;57135;51.992;4.476;2024-01-15T11:10:54;2.69;;;1.79;;
69837;SDS011;57135;51.992;4.476;2024-01-15T11:18:36;2.20;;;1.51;;
69837;SDS011;57135;51.992;4.476;2024-01-15T11:23:46;2.16;;;1.46;;
69837;SDS011;57135;51.992;4.476;2024-01-15T11:26:29;1.99;;;1.34;;
69837;SDS011;57135;51.992;4.476;2024-01-15T11:28:58;2.61;;;1.71;;
69837;SDS011;57135;51.992;4.476;2024-01-15T11:32:10;2.79;;;1.80;;
69837;SDS011;57135;51.992;4.476;2024-01-15T11:34:11;2.11;;;1.37;;
69837;SDS011;57135;51.992;4.476;2024-01-15T11:41:59;2.53;;;1.68;;
69837;SDS011;57135;51.992;4.476;2024-01-15T11:44:26;2.31;;;1.54;;
69837;SDS011;57135;51.992;4.476;2024-01-15T11:47:02;2.58;;;1.67;;
69837;SDS011;57135;51.992;4.476;2024-01-15T11:52:24;3.12;;;1.99;;
69837;SDS011;57135;51.992;4.476;2024-01-15T11:54:55;2.17;;;1.39;;
69837;SDS011;57135;51.992;4.476;2024-01-15T11:57:34;3.53;;;2.26;;
69837;SDS011;57135;51.992;4.476;2024-01-15T12:00:07;3.47;;;2.24;;
69837;SDS011;57135;51.992;4.476;2024-01-15T12:02:34;3.11;;;2.03;;
69837;SDS011;57135;51.992;4.476;2024-01-15T12:05:00;2.99;;;1.94;;
69837;SDS011;57135;51.992;4.476;2024-01-15T12:07:26;3.13;;;2.00;;
69837;SDS011;57135;51.992;4.476;2024-01-15T12:09:51;3.35;;;2.15;;
69837;SDS011;57135;51.992;4.476;2024-01-15T12:12:22;4.96;;;3.19;;
69837;SDS011;57135;51.992;4.476;2024-01-15T12:15:10;4.69;;;3.05;;
69837;SDS011;57135;51.992;4.476;2024-01-15T12:17:36;4.77;;;3.17;;
69837;SDS011;57135;51.992;4.476;2024-01-15T12:20:03;4.78;;;3.14;;
69837;SDS011;57135;51.992;4.476;2024-01-15T12:22:29;4.55;;;3.03;;
69837;SDS011;57135;51.992;4.476;2024-01-15T12:24:55;4.22;;;2.77;;
69837;SDS011;57135;51.992;4.476;2024-01-15T12:27:20;4.46;;;2.96;;
69837;SDS011;57135;51.992;4.476;2024-01-15T12:29:46;4.43;;;2.91;;
69837;SDS011;57135;51.992;4.476;2024-01-15T12:32:12;3.69;;;2.39;;
69837;SDS011;57135;51.992;4.476;2024-01-15T12:34:37;3.62;;;2.32;;
69837;SDS011;57135;51.992;4.476;2024-01-15T12:37:03;4.38;;;2.80;;
69837;SDS011;57135;51.992;4.476;2024-01-15T12:39:29;3.71;;;2.38;;
69837;SDS011;57135;51.992;4.476;2024-01-15T12:41:54;3.46;;;2.24;;
69837;SDS011;57135;51.992;4.476;2024-01-15T12:44:20;3.23;;;2.10;;
69837;SDS011;57135;51.992;4.476;2024-01-15T12:46:46;3.31;;;2.15;;
69837;SDS011;57135;51.992;4.476;2024-01-15T12:49:12;3.91;;;2.52;;
69837;SDS011;57135;51.992;4.476;2024-01-15T12:51:38;4.00;;;2.55;;
69837;SDS011;57135;51.992;4.476;2024-01-15T12:54:04;4.16;;;2.62;;
69837;SDS011;57135;51.992;4.476;2024-01-15T12:56:32;4.75;;;2.95;;
69837;SDS011;57135;51.992;4.476;2024-01-15T12:58:57;4.83;;;2.96;;
69837;SDS011;57135;51.992;4.476;2024-01-15T13:01:23;4.93;;;3.05;;
69837;SDS011;57135;51.992;4.476;2024-01-15T13:03:48;5.89;;;3.64;;
69837;SDS011;57135;51.992;4.476;2024-01-15T13:06:14;5.08;;;3.15;;
69837;SDS011;57135;51.992;4.476;2024-01-15T13:08:39;5.78;;;3.54;;
69837;SDS011;57135;51.992;4.476;2024-01-15T13:11:04;6.26;;;3.79;;
69837;SDS011;57135;51.992;4.476;2024-01-15T13:13:30;6.21;;;3.76;;
69837;SDS011;57135;51.992;4.476;2024-01-15T13:15:59;5.31;;;3.24;;
69837;SDS011;57135;51.992;4.476;2024-01-15T13:18:25;3.96;;;2.43;;
69837;SDS011;57135;51.992;4.476;2024-01-15T13:20:50;4.48;;;2.74;;
69837;SDS011;57135;51.992;4.476;2024-01-15T13:23:16;5.27;;;3.22;;
69837;SDS011;57135;51.992;4.476;2024-01-15T13:25:41;5.43;;;3.37;;
69837;SDS011;57135;51.992;4.476;2024-01-15T13:28:07;3.54;;;2.24;;
69837;SDS011;57135;51.992;4.476;2024-01-15T13:30:35;2.72;;;1.73;;
69837;SDS011;57135;51.992;4.476;2024-01-15T13:33:00;2.44;;;1.55;;
69837;SDS011;57135;51.992;4.476;2024-01-15T13:35:29;2.99;;;1.90;;
69837;SDS011;57135;51.992;4.476;2024-01-15T13:37:55;2.50;;;1.59;;
69837;SDS011;57135;51.992;4.476;2024-01-15T13:40:20;2.95;;;1.91;;
69837;SDS011;57135;51.992;4.476;2024-01-15T13:42:47;2.85;;;1.87;;
69837;SDS011;57135;51.992;4.476;2024-01-15T13:45:13;2.52;;;1.67;;
69837;SDS011;57135;51.992;4.476;2024-01-15T13:47:41;2.41;;;1.59;;
69837;SDS011;57135;51.992;4.476;2024-01-15T13:50:10;3.45;;;2.26;;
69837;SDS011;57135;51.992;4.476;2024-01-15T13:52:35;3.69;;;2.40;;
69837;SDS011;57135;51.992;4.476;2024-01-15T13:55:01;3.67;;;2.37;;
69837;SDS011;57135;51.992;4.476;2024-01-15T13:57:27;4.01;;;2.56;;
69837;SDS011;57135;51.992;4.476;2024-01-15T13:59:52;4.19;;;2.62;;
69837;SDS011;57135;51.992;4.476;2024-01-15T14:02:17;4.12;;;2.59;;
69837;SDS011;57135;51.992;4.476;2024-01-15T14:04:43;3.94;;;2.51;;
69837;SDS011;57135;51.992;4.476;2024-01-15T14:07:08;3.56;;;2.30;;
69837;SDS011;57135;51.992;4.476;2024-01-15T14:09:34;3.34;;;2.22;;
69837;SDS011;57135;51.992;4.476;2024-01-15T14:11:59;4.44;;;2.92;;
69837;SDS011;57135;51.992;4.476;2024-01-15T14:14:25;4.64;;;3.00;;
69837;SDS011;57135;51.992;4.476;2024-01-15T14:16:50;4.92;;;3.12;;
69837;SDS011;57135;51.992;4.476;2024-01-15T14:19:16;4.75;;;3.00;;
69837;SDS011;57135;51.992;4.476;2024-01-15T14:21:41;4.60;;;2.88;;
69837;SDS011;57135;51.992;4.476;2024-01-15T14:24:06;4.67;;;2.90;;
69837;SDS011;57135;51.992;4.476;2024-01-15T14:26:32;5.03;;;3.12;;
69837;SDS011;57135;51.992;4.476;2024-01-15T14:28:57;5.25;;;3.22;;
69837;SDS011;57135;51.992;4.476;2024-01-15T14:31:23;4.51;;;2.76;;
69837;SDS011;57135;51.992;4.476;2024-01-15T14:33:51;4.41;;;2.75;;
69837;SDS011;57135;51.992;4.476;2024-01-15T14:36:17;4.06;;;2.56;;
69837;SDS011;57135;51.992;4.476;2024-01-15T14:38:43;3.80;;;2.40;;
69837;SDS011;57135;51.992;4.476;2024-01-15T14:41:08;4.39;;;2.78;;
69837;SDS011;57135;51.992;4.476;2024-01-15T14:43:33;3.69;;;2.32;;
69837;SDS011;57135;51.992;4.476;2024-01-15T14:45:59;4.14;;;2.57;;
69837;SDS011;57135;51.992;4.476;2024-01-15T14:48:25;4.91;;;3.09;;
69837;SDS011;57135;51.992;4.476;2024-01-15T14:50:50;4.80;;;3.07;;
69837;SDS011;57135;51.992;4.476;2024-01-15T14:53:16;4.11;;;2.65;;
69837;SDS011;57135;51.992;4.476;2024-01-15T14:55:42;3.69;;;2.36;;
69837;SDS011;57135;51.992;4.476;2024-01-15T14:58:08;3.88;;;2.48;;
69837;SDS011;57135;51.992;4.476;2024-01-15T15:00:33;3.65;;;2.36;;